Pagina principale
METAR-TAF:

METAR-TAF

Aeroporti :

Alpnach, Svizzera

latitudine: 46-56-19N, longitudine: 8-17-03E, altezza: 440 m

Osservazione

Il bollettino è stato emesso 32 minuti fa, alle 21:20 UTC
Vento 2 kt da direzioni variabili
Temperature -2°C
Umidità 80%
Pressione 1018 hPa
Visibilità 10 km o più
Nuvoloso ad un'altezza di 3300 ft

METAR: LSMA 122120Z AUTO VRB02KT 9999NDV BKN033 M02/M05 Q1018 RMK

Ora: 22:52 (21:52 UTC)


TAF: mancante

Osservazioni e previsioni meteorologiche di più di 4000 aeroporti (messaggi METAR e TAF).

Le stazioni disponibili sono rappresentate dai dischi gialli e rossi sulla carta.

Puntare il mouse per vedere il nome della stazione.

Clicca sopra per visualizzare le osservazioni e previsioni meteorologiche.

Per cambiare la mappa : fare clic sui pulsanti verdi con una croce nera per ingrandire, il pulsante verde con un trattino per diminuire, o sulla freccia verde per le mappe adiacenti.


METAR-TAF: